sensor_id;sensor_type;location;lat;lon;timestamp;P1;durP1;ratioP1;P2;durP2;ratioP2
7575;SDS011;3829;50.798;4.358;2022-12-15T00:01:28;68.10;;;31.93;;
7575;SDS011;3829;50.798;4.358;2022-12-15T00:04:12;77.50;;;33.50;;
7575;SDS011;3829;50.798;4.358;2022-12-15T00:06:56;57.87;;;30.13;;
7575;SDS011;3829;50.798;4.358;2022-12-15T00:09:41;65.03;;;31.93;;
7575;SDS011;3829;50.798;4.358;2022-12-15T00:12:25;72.90;;;34.03;;
7575;SDS011;3829;50.798;4.358;2022-12-15T00:15:09;71.47;;;32.97;;
7575;SDS011;3829;50.798;4.358;2022-12-15T00:17:53;61.47;;;31.43;;
7575;SDS011;3829;50.798;4.358;2022-12-15T00:20:37;69.50;;;30.03;;
7575;SDS011;3829;50.798;4.358;2022-12-15T00:23:21;69.20;;;31.07;;
7575;SDS011;3829;50.798;4.358;2022-12-15T00:26:05;65.60;;;31.43;;
7575;SDS011;3829;50.798;4.358;2022-12-15T00:28:49;63.10;;;29.90;;
7575;SDS011;3829;50.798;4.358;2022-12-15T00:31:33;66.03;;;31.23;;
7575;SDS011;3829;50.798;4.358;2022-12-15T00:34:17;67.27;;;31.00;;
7575;SDS011;3829;50.798;4.358;2022-12-15T00:37:02;61.43;;;29.93;;
7575;SDS011;3829;50.798;4.358;2022-12-15T00:39:46;69.50;;;30.90;;
7575;SDS011;3829;50.798;4.358;2022-12-15T00:42:22;63.80;;;30.60;;
7575;SDS011;3829;50.798;4.358;2022-12-15T00:44:48;69.57;;;31.00;;
7575;SDS011;3829;50.798;4.358;2022-12-15T00:47:15;74.87;;;31.03;;
7575;SDS011;3829;50.798;4.358;2022-12-15T00:49:40;64.73;;;30.97;;
7575;SDS011;3829;50.798;4.358;2022-12-15T00:52:25;62.57;;;29.43;;
7575;SDS011;3829;50.798;4.358;2022-12-15T00:55:09;66.03;;;29.07;;
7575;SDS011;3829;50.798;4.358;2022-12-15T00:57:53;61.80;;;29.07;;
7575;SDS011;3829;50.798;4.358;2022-12-15T01:00:37;68.77;;;29.17;;
7575;SDS011;3829;50.798;4.358;2022-12-15T01:03:22;55.93;;;27.33;;
7575;SDS011;3829;50.798;4.358;2022-12-15T01:06:08;61.27;;;28.73;;
7575;SDS011;3829;50.798;4.358;2022-12-15T01:08:54;53.27;;;27.33;;
7575;SDS011;3829;50.798;4.358;2022-12-15T01:11:39;63.93;;;26.47;;
7575;SDS011;3829;50.798;4.358;2022-12-15T01:14:24;61.27;;;26.83;;
7575;SDS011;3829;50.798;4.358;2022-12-15T01:17:08;55.27;;;27.70;;
7575;SDS011;3829;50.798;4.358;2022-12-15T01:19:53;56.23;;;26.00;;
7575;SDS011;3829;50.798;4.358;2022-12-15T01:22:38;54.93;;;24.67;;
7575;SDS011;3829;50.798;4.358;2022-12-15T01:25:04;56.60;;;26.53;;
7575;SDS011;3829;50.798;4.358;2022-12-15T01:27:31;53.97;;;27.33;;
7575;SDS011;3829;50.798;4.358;2022-12-15T01:29:57;53.90;;;27.10;;
7575;SDS011;3829;50.798;4.358;2022-12-15T01:32:22;50.00;;;25.07;;
7575;SDS011;3829;50.798;4.358;2022-12-15T01:34:48;61.10;;;26.80;;
7575;SDS011;3829;50.798;4.358;2022-12-15T01:37:14;49.60;;;25.63;;
7575;SDS011;3829;50.798;4.358;2022-12-15T01:39:40;50.13;;;24.50;;
7575;SDS011;3829;50.798;4.358;2022-12-15T01:42:24;48.67;;;24.33;;
7575;SDS011;3829;50.798;4.358;2022-12-15T01:44:51;53.10;;;26.20;;
7575;SDS011;3829;50.798;4.358;2022-12-15T01:47:17;49.70;;;24.03;;
7575;SDS011;3829;50.798;4.358;2022-12-15T01:49:47;53.83;;;24.90;;
7575;SDS011;3829;50.798;4.358;2022-12-15T01:52:13;43.77;;;23.63;;
7575;SDS011;3829;50.798;4.358;2022-12-15T01:54:48;55.47;;;25.60;;
7575;SDS011;3829;50.798;4.358;2022-12-15T01:57:17;54.67;;;27.33;;
7575;SDS011;3829;50.798;4.358;2022-12-15T01:59:47;62.67;;;28.70;;
7575;SDS011;3829;50.798;4.358;2022-12-15T02:02:17;61.07;;;27.27;;
7575;SDS011;3829;50.798;4.358;2022-12-15T02:04:46;59.53;;;27.07;;
7575;SDS011;3829;50.798;4.358;2022-12-15T02:07:14;52.50;;;25.40;;
7575;SDS011;3829;50.798;4.358;2022-12-15T02:09:40;53.27;;;25.40;;
7575;SDS011;3829;50.798;4.358;2022-12-15T02:18:03;54.27;;;24.93;;
7575;SDS011;3829;50.798;4.358;2022-12-15T02:29:38;49.67;;;23.43;;
7575;SDS011;3829;50.798;4.358;2022-12-15T02:32:25;48.53;;;24.33;;
7575;SDS011;3829;50.798;4.358;2022-12-15T02:35:00;49.37;;;23.77;;
7575;SDS011;3829;50.798;4.358;2022-12-15T02:37:31;46.13;;;23.10;;
7575;SDS011;3829;50.798;4.358;2022-12-15T02:39:59;48.23;;;23.07;;
7575;SDS011;3829;50.798;4.358;2022-12-15T02:42:26;48.13;;;23.00;;
7575;SDS011;3829;50.798;4.358;2022-12-15T02:58:00;50.40;;;24.40;;
7575;SDS011;3829;50.798;4.358;2022-12-15T03:00:33;50.60;;;24.03;;
7575;SDS011;3829;50.798;4.358;2022-12-15T03:03:04;50.27;;;22.70;;
7575;SDS011;3829;50.798;4.358;2022-12-15T03:05:30;44.33;;;22.87;;
7575;SDS011;3829;50.798;4.358;2022-12-15T03:07:56;47.00;;;23.13;;
7575;SDS011;3829;50.798;4.358;2022-12-15T03:10:22;44.60;;;23.87;;
7575;SDS011;3829;50.798;4.358;2022-12-15T03:12:49;47.73;;;23.50;;
7575;SDS011;3829;50.798;4.358;2022-12-15T03:15:16;48.63;;;23.13;;
7575;SDS011;3829;50.798;4.358;2022-12-15T03:17:42;47.43;;;22.80;;
7575;SDS011;3829;50.798;4.358;2022-12-15T03:20:08;45.87;;;22.60;;
7575;SDS011;3829;50.798;4.358;2022-12-15T03:22:34;43.63;;;21.70;;
7575;SDS011;3829;50.798;4.358;2022-12-15T03:25:01;50.87;;;21.77;;
7575;SDS011;3829;50.798;4.358;2022-12-15T03:27:28;40.93;;;21.17;;
7575;SDS011;3829;50.798;4.358;2022-12-15T03:29:53;46.87;;;22.57;;
7575;SDS011;3829;50.798;4.358;2022-12-15T03:32:19;41.60;;;20.87;;
7575;SDS011;3829;50.798;4.358;2022-12-15T03:34:45;48.73;;;20.67;;
7575;SDS011;3829;50.798;4.358;2022-12-15T03:37:10;44.37;;;22.20;;
7575;SDS011;3829;50.798;4.358;2022-12-15T03:39:36;44.70;;;21.63;;
7575;SDS011;3829;50.798;4.358;2022-12-15T03:42:03;48.63;;;21.80;;
7575;SDS011;3829;50.798;4.358;2022-12-15T03:44:28;44.10;;;21.00;;
7575;SDS011;3829;50.798;4.358;2022-12-15T03:46:54;46.00;;;21.80;;
7575;SDS011;3829;50.798;4.358;2022-12-15T03:49:19;48.80;;;22.27;;
7575;SDS011;3829;50.798;4.358;2022-12-15T03:51:45;40.43;;;19.30;;
7575;SDS011;3829;50.798;4.358;2022-12-15T03:54:12;46.17;;;22.17;;
7575;SDS011;3829;50.798;4.358;2022-12-15T03:56:38;38.73;;;20.87;;
7575;SDS011;3829;50.798;4.358;2022-12-15T03:59:03;44.13;;;21.10;;
7575;SDS011;3829;50.798;4.358;2022-12-15T04:01:30;46.60;;;20.93;;
7575;SDS011;3829;50.798;4.358;2022-12-15T04:03:58;43.37;;;21.20;;
7575;SDS011;3829;50.798;4.358;2022-12-15T04:06:24;40.57;;;20.47;;
7575;SDS011;3829;50.798;4.358;2022-12-15T04:08:50;48.93;;;21.67;;
7575;SDS011;3829;50.798;4.358;2022-12-15T04:11:16;47.20;;;22.03;;
7575;SDS011;3829;50.798;4.358;2022-12-15T04:13:42;47.40;;;21.77;;
7575;SDS011;3829;50.798;4.358;2022-12-15T04:16:08;43.20;;;21.20;;
7575;SDS011;3829;50.798;4.358;2022-12-15T04:18:34;48.47;;;21.77;;
7575;SDS011;3829;50.798;4.358;2022-12-15T04:21:00;43.10;;;21.37;;
7575;SDS011;3829;50.798;4.358;2022-12-15T04:23:26;37.37;;;19.70;;
7575;SDS011;3829;50.798;4.358;2022-12-15T04:25:51;43.07;;;20.93;;
7575;SDS011;3829;50.798;4.358;2022-12-15T04:28:35;49.73;;;21.13;;
7575;SDS011;3829;50.798;4.358;2022-12-15T04:31:24;44.23;;;21.73;;
7575;SDS011;3829;50.798;4.358;2022-12-15T04:34:13;39.27;;;18.63;;
7575;SDS011;3829;50.798;4.358;2022-12-15T04:37:00;41.07;;;19.60;;
7575;SDS011;3829;50.798;4.358;2022-12-15T04:39:46;37.33;;;20.13;;
7575;SDS011;3829;50.798;4.358;2022-12-15T04:42:33;39.73;;;19.73;;
7575;SDS011;3829;50.798;4.358;2022-12-15T04:45:19;37.13;;;18.33;;
7575;SDS011;3829;50.798;4.358;2022-12-15T04:48:06;38.13;;;19.47;;
7575;SDS011;3829;50.798;4.358;2022-12-15T04:50:51;40.70;;;19.40;;
7575;SDS011;3829;50.798;4.358;2022-12-15T04:53:35;33.80;;;18.60;;
7575;SDS011;3829;50.798;4.358;2022-12-15T04:56:19;39.87;;;20.03;;
7575;SDS011;3829;50.798;4.358;2022-12-15T04:59:03;35.97;;;19.17;;
7575;SDS011;3829;50.798;4.358;2022-12-15T05:01:47;44.97;;;19.40;;
7575;SDS011;3829;50.798;4.358;2022-12-15T05:04:31;43.87;;;20.47;;
7575;SDS011;3829;50.798;4.358;2022-12-15T05:07:16;46.43;;;19.60;;
7575;SDS011;3829;50.798;4.358;2022-12-15T05:10:00;38.03;;;19.10;;
7575;SDS011;3829;50.798;4.358;2022-12-15T05:12:44;41.70;;;19.87;;
7575;SDS011;3829;50.798;4.358;2022-12-15T05:15:28;34.23;;;18.00;;
7575;SDS011;3829;50.798;4.358;2022-12-15T05:18:12;36.07;;;20.20;;
7575;SDS011;3829;50.798;4.358;2022-12-15T05:20:57;41.63;;;19.37;;
7575;SDS011;3829;50.798;4.358;2022-12-15T05:23:41;37.23;;;18.47;;
7575;SDS011;3829;50.798;4.358;2022-12-15T05:26:25;41.00;;;19.20;;
7575;SDS011;3829;50.798;4.358;2022-12-15T05:29:09;40.57;;;19.13;;
7575;SDS011;3829;50.798;4.358;2022-12-15T05:31:53;42.47;;;19.47;;
7575;SDS011;3829;50.798;4.358;2022-12-15T05:36:45;36.97;;;19.13;;
7575;SDS011;3829;50.798;4.358;2022-12-15T05:39:11;43.17;;;18.93;;
7575;SDS011;3829;50.798;4.358;2022-12-15T05:41:36;42.37;;;19.90;;
7575;SDS011;3829;50.798;4.358;2022-12-15T05:44:02;44.17;;;21.17;;
7575;SDS011;3829;50.798;4.358;2022-12-15T05:46:28;39.10;;;20.03;;
7575;SDS011;3829;50.798;4.358;2022-12-15T05:48:53;45.00;;;20.43;;
7575;SDS011;3829;50.798;4.358;2022-12-15T05:51:19;44.07;;;20.27;;
7575;SDS011;3829;50.798;4.358;2022-12-15T05:53:44;42.57;;;20.23;;
7575;SDS011;3829;50.798;4.358;2022-12-15T05:56:11;39.83;;;20.67;;
7575;SDS011;3829;50.798;4.358;2022-12-15T05:58:38;45.67;;;20.83;;
7575;SDS011;3829;50.798;4.358;2022-12-15T06:01:06;45.23;;;21.43;;
7575;SDS011;3829;50.798;4.358;2022-12-15T06:03:34;39.20;;;20.20;;
7575;SDS011;3829;50.798;4.358;2022-12-15T06:06:03;37.63;;;19.53;;
7575;SDS011;3829;50.798;4.358;2022-12-15T06:08:30;42.10;;;20.33;;
7575;SDS011;3829;50.798;4.358;2022-12-15T06:10:57;38.20;;;19.40;;
7575;SDS011;3829;50.798;4.358;2022-12-15T06:13:23;42.67;;;21.37;;
7575;SDS011;3829;50.798;4.358;2022-12-15T06:15:54;38.73;;;19.90;;
7575;SDS011;3829;50.798;4.358;2022-12-15T06:18:21;44.60;;;20.43;;
7575;SDS011;3829;50.798;4.358;2022-12-15T06:20:47;40.07;;;19.67;;
7575;SDS011;3829;50.798;4.358;2022-12-15T06:23:12;41.70;;;21.03;;
7575;SDS011;3829;50.798;4.358;2022-12-15T06:25:38;38.93;;;20.03;;
7575;SDS011;3829;50.798;4.358;2022-12-15T06:28:04;41.87;;;19.30;;
7575;SDS011;3829;50.798;4.358;2022-12-15T06:30:29;43.07;;;22.00;;
7575;SDS011;3829;50.798;4.358;2022-12-15T06:32:55;44.03;;;20.40;;
7575;SDS011;3829;50.798;4.358;2022-12-15T06:35:21;40.33;;;20.13;;
7575;SDS011;3829;50.798;4.358;2022-12-15T06:37:46;41.50;;;20.40;;
7575;SDS011;3829;50.798;4.358;2022-12-15T06:40:12;35.83;;;18.50;;
7575;SDS011;3829;50.798;4.358;2022-12-15T06:42:38;37.37;;;20.17;;
7575;SDS011;3829;50.798;4.358;2022-12-15T06:45:03;44.13;;;20.47;;
7575;SDS011;3829;50.798;4.358;2022-12-15T06:47:29;42.47;;;20.50;;
7575;SDS011;3829;50.798;4.358;2022-12-15T06:49:55;40.10;;;20.00;;
7575;SDS011;3829;50.798;4.358;2022-12-15T06:52:21;39.57;;;19.70;;
7575;SDS011;3829;50.798;4.358;2022-12-15T06:54:47;42.93;;;19.73;;
7575;SDS011;3829;50.798;4.358;2022-12-15T06:57:12;41.80;;;21.50;;
7575;SDS011;3829;50.798;4.358;2022-12-15T06:59:38;41.10;;;20.43;;
7575;SDS011;3829;50.798;4.358;2022-12-15T07:02:03;43.77;;;21.67;;
7575;SDS011;3829;50.798;4.358;2022-12-15T07:04:31;41.07;;;21.40;;
7575;SDS011;3829;50.798;4.358;2022-12-15T07:06:57;44.07;;;22.07;;
7575;SDS011;3829;50.798;4.358;2022-12-15T07:09:23;47.10;;;21.50;;
7575;SDS011;3829;50.798;4.358;2022-12-15T07:11:50;48.10;;;22.13;;
7575;SDS011;3829;50.798;4.358;2022-12-15T07:14:16;42.33;;;19.57;;
7575;SDS011;3829;50.798;4.358;2022-12-15T07:16:42;38.03;;;21.63;;
7575;SDS011;3829;50.798;4.358;2022-12-15T07:19:09;38.47;;;21.57;;
7575;SDS011;3829;50.798;4.358;2022-12-15T07:21:38;44.33;;;21.13;;
7575;SDS011;3829;50.798;4.358;2022-12-15T07:24:05;42.13;;;21.17;;
7575;SDS011;3829;50.798;4.358;2022-12-15T07:26:31;40.50;;;20.67;;
7575;SDS011;3829;50.798;4.358;2022-12-15T07:28:57;42.17;;;21.57;;
7575;SDS011;3829;50.798;4.358;2022-12-15T07:31:23;38.03;;;19.90;;
7575;SDS011;3829;50.798;4.358;2022-12-15T07:33:49;42.33;;;20.33;;
7575;SDS011;3829;50.798;4.358;2022-12-15T07:36:16;44.33;;;21.88;;
7575;SDS011;3829;50.798;4.358;2022-12-15T07:38:42;41.10;;;20.73;;
7575;SDS011;3829;50.798;4.358;2022-12-15T07:41:09;46.60;;;21.67;;
7575;SDS011;3829;50.798;4.358;2022-12-15T07:43:35;45.93;;;21.33;;
7575;SDS011;3829;50.798;4.358;2022-12-15T07:46:00;45.73;;;24.03;;
7575;SDS011;3829;50.798;4.358;2022-12-15T07:48:26;45.73;;;21.60;;
7575;SDS011;3829;50.798;4.358;2022-12-15T07:50:53;42.87;;;21.67;;
7575;SDS011;3829;50.798;4.358;2022-12-15T07:53:22;43.43;;;21.53;;
7575;SDS011;3829;50.798;4.358;2022-12-15T07:55:53;43.33;;;21.30;;
7575;SDS011;3829;50.798;4.358;2022-12-15T07:58:23;43.73;;;22.40;;
7575;SDS011;3829;50.798;4.358;2022-12-15T08:00:52;47.00;;;22.53;;
7575;SDS011;3829;50.798;4.358;2022-12-15T08:03:22;45.70;;;23.10;;
7575;SDS011;3829;50.798;4.358;2022-12-15T08:05:48;45.97;;;22.10;;
7575;SDS011;3829;50.798;4.358;2022-12-15T08:08:14;44.97;;;21.83;;
7575;SDS011;3829;50.798;4.358;2022-12-15T08:10:40;44.67;;;22.13;;
7575;SDS011;3829;50.798;4.358;2022-12-15T08:13:05;43.20;;;22.27;;
7575;SDS011;3829;50.798;4.358;2022-12-15T08:15:33;47.47;;;21.73;;
7575;SDS011;3829;50.798;4.358;2022-12-15T08:18:00;44.53;;;22.07;;
7575;SDS011;3829;50.798;4.358;2022-12-15T08:20:26;47.50;;;22.07;;
7575;SDS011;3829;50.798;4.358;2022-12-15T08:22:53;44.63;;;20.63;;
7575;SDS011;3829;50.798;4.358;2022-12-15T08:25:18;40.97;;;20.17;;
7575;SDS011;3829;50.798;4.358;2022-12-15T08:27:45;37.77;;;18.90;;
7575;SDS011;3829;50.798;4.358;2022-12-15T08:30:10;40.50;;;21.93;;
7575;SDS011;3829;50.798;4.358;2022-12-15T08:32:36;40.97;;;19.50;;
7575;SDS011;3829;50.798;4.358;2022-12-15T08:35:03;38.80;;;20.97;;
7575;SDS011;3829;50.798;4.358;2022-12-15T08:37:29;46.20;;;22.20;;
7575;SDS011;3829;50.798;4.358;2022-12-15T08:39:54;47.20;;;20.50;;
7575;SDS011;3829;50.798;4.358;2022-12-15T08:42:20;50.10;;;22.70;;
7575;SDS011;3829;50.798;4.358;2022-12-15T08:44:47;43.93;;;22.43;;
7575;SDS011;3829;50.798;4.358;2022-12-15T08:47:13;49.90;;;23.27;;
7575;SDS011;3829;50.798;4.358;2022-12-15T08:49:39;45.67;;;21.33;;
7575;SDS011;3829;50.798;4.358;2022-12-15T08:52:05;47.87;;;21.87;;
7575;SDS011;3829;50.798;4.358;2022-12-15T08:54:30;44.87;;;22.23;;
7575;SDS011;3829;50.798;4.358;2022-12-15T08:56:56;48.57;;;21.77;;
7575;SDS011;3829;50.798;4.358;2022-12-15T08:59:22;45.97;;;22.23;;
7575;SDS011;3829;50.798;4.358;2022-12-15T09:01:48;43.87;;;21.00;;
7575;SDS011;3829;50.798;4.358;2022-12-15T09:04:13;43.93;;;20.70;;
7575;SDS011;3829;50.798;4.358;2022-12-15T09:06:39;48.40;;;21.33;;
7575;SDS011;3829;50.798;4.358;2022-12-15T09:09:06;46.50;;;20.90;;
7575;SDS011;3829;50.798;4.358;2022-12-15T09:11:34;44.43;;;21.43;;
7575;SDS011;3829;50.798;4.358;2022-12-15T09:13:59;42.60;;;21.30;;
7575;SDS011;3829;50.798;4.358;2022-12-15T09:16:26;48.23;;;21.07;;
7575;SDS011;3829;50.798;4.358;2022-12-15T09:18:53;45.30;;;20.80;;
7575;SDS011;3829;50.798;4.358;2022-12-15T09:21:20;52.23;;;20.37;;
7575;SDS011;3829;50.798;4.358;2022-12-15T09:23:48;37.37;;;20.30;;
7575;SDS011;3829;50.798;4.358;2022-12-15T09:26:16;40.70;;;21.07;;
7575;SDS011;3829;50.798;4.358;2022-12-15T09:28:43;36.73;;;20.37;;
7575;SDS011;3829;50.798;4.358;2022-12-15T09:31:10;45.37;;;21.67;;
7575;SDS011;3829;50.798;4.358;2022-12-15T09:33:37;45.80;;;21.50;;
7575;SDS011;3829;50.798;4.358;2022-12-15T09:36:03;39.30;;;19.47;;
7575;SDS011;3829;50.798;4.358;2022-12-15T09:38:30;46.43;;;21.03;;
7575;SDS011;3829;50.798;4.358;2022-12-15T09:40:57;41.93;;;20.83;;
7575;SDS011;3829;50.798;4.358;2022-12-15T09:43:38;44.73;;;22.03;;
7575;SDS011;3829;50.798;4.358;2022-12-15T09:49:17;42.87;;;20.40;;
7575;SDS011;3829;50.798;4.358;2022-12-15T09:51:55;40.67;;;20.17;;
7575;SDS011;3829;50.798;4.358;2022-12-15T09:54:27;40.50;;;20.13;;
7575;SDS011;3829;50.798;4.358;2022-12-15T09:56:56;37.00;;;20.30;;
7575;SDS011;3829;50.798;4.358;2022-12-15T09:59:31;44.27;;;20.30;;
7575;SDS011;3829;50.798;4.358;2022-12-15T10:07:26;40.50;;;19.50;;
7575;SDS011;3829;50.798;4.358;2022-12-15T10:13:20;36.67;;;20.97;;
7575;SDS011;3829;50.798;4.358;2022-12-15T10:15:52;37.43;;;21.50;;
7575;SDS011;3829;50.798;4.358;2022-12-15T10:18:40;43.13;;;22.03;;
7575;SDS011;3829;50.798;4.358;2022-12-15T10:21:13;45.77;;;22.07;;
7575;SDS011;3829;50.798;4.358;2022-12-15T10:23:38;44.83;;;20.80;;
7575;SDS011;3829;50.798;4.358;2022-12-15T10:26:13;55.13;;;24.83;;
7575;SDS011;3829;50.798;4.358;2022-12-15T10:35:32;43.43;;;23.60;;
7575;SDS011;3829;50.798;4.358;2022-12-15T10:38:01;42.33;;;24.27;;
7575;SDS011;3829;50.798;4.358;2022-12-15T10:45:58;43.60;;;21.50;;
7575;SDS011;3829;50.798;4.358;2022-12-15T10:48:31;43.07;;;22.43;;
7575;SDS011;3829;50.798;4.358;2022-12-15T10:51:09;37.97;;;22.27;;
7575;SDS011;3829;50.798;4.358;2022-12-15T10:56:52;42.93;;;20.97;;
7575;SDS011;3829;50.798;4.358;2022-12-15T10:59:30;47.03;;;21.80;;
7575;SDS011;3829;50.798;4.358;2022-12-15T11:07:20;37.67;;;20.20;;
7575;SDS011;3829;50.798;4.358;2022-12-15T11:09:47;37.23;;;20.47;;
7575;SDS011;3829;50.798;4.358;2022-12-15T11:12:17;34.70;;;19.37;;
7575;SDS011;3829;50.798;4.358;2022-12-15T11:15:50;35.10;;;18.70;;
7575;SDS011;3829;50.798;4.358;2022-12-15T11:18:20;37.17;;;18.10;;
7575;SDS011;3829;50.798;4.358;2022-12-15T11:28:58;32.93;;;16.83;;
7575;SDS011;3829;50.798;4.358;2022-12-15T11:31:37;26.67;;;15.20;;
7575;SDS011;3829;50.798;4.358;2022-12-15T11:34:14;28.20;;;15.87;;
7575;SDS011;3829;50.798;4.358;2022-12-15T11:39:48;36.77;;;18.67;;
7575;SDS011;3829;50.798;4.358;2022-12-15T11:45:25;37.67;;;21.93;;
7575;SDS011;3829;50.798;4.358;2022-12-15T11:48:08;38.97;;;21.97;;
7575;SDS011;3829;50.798;4.358;2022-12-15T12:07:48;39.60;;;20.90;;
7575;SDS011;3829;50.798;4.358;2022-12-15T12:10:30;41.57;;;22.10;;
7575;SDS011;3829;50.798;4.358;2022-12-15T12:18:50;45.63;;;24.50;;
7575;SDS011;3829;50.798;4.358;2022-12-15T12:21:45;47.00;;;23.53;;
7575;SDS011;3829;50.798;4.358;2022-12-15T12:24:25;56.63;;;25.63;;
7575;SDS011;3829;50.798;4.358;2022-12-15T12:26:56;44.40;;;23.73;;
7575;SDS011;3829;50.798;4.358;2022-12-15T12:32:31;42.03;;;25.23;;
7575;SDS011;3829;50.798;4.358;2022-12-15T12:35:22;48.40;;;24.93;;
7575;SDS011;3829;50.798;4.358;2022-12-15T12:38:06;47.90;;;25.70;;
7575;SDS011;3829;50.798;4.358;2022-12-15T12:48:30;37.87;;;22.63;;
7575;SDS011;3829;50.798;4.358;2022-12-15T12:51:08;52.07;;;24.87;;
7575;SDS011;3829;50.798;4.358;2022-12-15T12:53:56;47.00;;;25.63;;
7575;SDS011;3829;50.798;4.358;2022-12-15T12:59:30;44.97;;;23.00;;
7575;SDS011;3829;50.798;4.358;2022-12-15T13:01:53;38.73;;;23.57;;
7575;SDS011;3829;50.798;4.358;2022-12-15T13:06:56;43.00;;;24.93;;
7575;SDS011;3829;50.798;4.358;2022-12-15T13:12:02;49.50;;;23.00;;
7575;SDS011;3829;50.798;4.358;2022-12-15T13:17:17;43.87;;;24.30;;
7575;SDS011;3829;50.798;4.358;2022-12-15T13:22:32;51.50;;;25.30;;
7575;SDS011;3829;50.798;4.358;2022-12-15T13:24:59;42.77;;;22.43;;
7575;SDS011;3829;50.798;4.358;2022-12-15T13:27:36;49.43;;;24.97;;
7575;SDS011;3829;50.798;4.358;2022-12-15T13:37:45;57.63;;;25.37;;
7575;SDS011;3829;50.798;4.358;2022-12-15T13:48:12;45.37;;;22.40;;
7575;SDS011;3829;50.798;4.358;2022-12-15T13:51:09;45.37;;;23.63;;
7575;SDS011;3829;50.798;4.358;2022-12-15T13:53:48;48.40;;;24.37;;
7575;SDS011;3829;50.798;4.358;2022-12-15T13:59:44;39.47;;;21.87;;
7575;SDS011;3829;50.798;4.358;2022-12-15T14:05:10;45.97;;;22.63;;
7575;SDS011;3829;50.798;4.358;2022-12-15T14:12:45;45.30;;;21.10;;
7575;SDS011;3829;50.798;4.358;2022-12-15T14:15:14;44.80;;;20.60;;
7575;SDS011;3829;50.798;4.358;2022-12-15T14:17:40;48.80;;;20.63;;
7575;SDS011;3829;50.798;4.358;2022-12-15T14:20:12;40.43;;;18.73;;
7575;SDS011;3829;50.798;4.358;2022-12-15T14:22:44;39.27;;;18.70;;
7575;SDS011;3829;50.798;4.358;2022-12-15T14:25:31;31.27;;;17.17;;
7575;SDS011;3829;50.798;4.358;2022-12-15T14:27:55;34.03;;;18.93;;
7575;SDS011;3829;50.798;4.358;2022-12-15T14:30:23;31.63;;;16.67;;
7575;SDS011;3829;50.798;4.358;2022-12-15T14:33:03;39.10;;;17.33;;
7575;SDS011;3829;50.798;4.358;2022-12-15T14:35:37;31.00;;;14.50;;
7575;SDS011;3829;50.798;4.358;2022-12-15T14:38:19;31.17;;;14.73;;
7575;SDS011;3829;50.798;4.358;2022-12-15T14:40:46;32.47;;;15.60;;
7575;SDS011;3829;50.798;4.358;2022-12-15T14:43:22;29.13;;;16.33;;
7575;SDS011;3829;50.798;4.358;2022-12-15T14:45:54;36.83;;;17.27;;
7575;SDS011;3829;50.798;4.358;2022-12-15T14:48:30;33.73;;;17.03;;
7575;SDS011;3829;50.798;4.358;2022-12-15T14:50:59;35.77;;;18.10;;
7575;SDS011;3829;50.798;4.358;2022-12-15T14:53:33;29.60;;;17.07;;
7575;SDS011;3829;50.798;4.358;2022-12-15T15:01:35;32.53;;;17.07;;
7575;SDS011;3829;50.798;4.358;2022-12-15T15:04:06;33.97;;;17.50;;
7575;SDS011;3829;50.798;4.358;2022-12-15T15:06:54;38.60;;;18.63;;
7575;SDS011;3829;50.798;4.358;2022-12-15T15:12:13;31.40;;;17.20;;
7575;SDS011;3829;50.798;4.358;2022-12-15T15:14:58;29.30;;;15.77;;
7575;SDS011;3829;50.798;4.358;2022-12-15T15:17:36;27.40;;;15.67;;
7575;SDS011;3829;50.798;4.358;2022-12-15T15:20:18;29.77;;;14.93;;
7575;SDS011;3829;50.798;4.358;2022-12-15T15:23:02;26.83;;;14.63;;
7575;SDS011;3829;50.798;4.358;2022-12-15T15:30:49;31.03;;;15.30;;
7575;SDS011;3829;50.798;4.358;2022-12-15T15:33:19;31.93;;;16.53;;
7575;SDS011;3829;50.798;4.358;2022-12-15T15:35:52;30.60;;;17.50;;
7575;SDS011;3829;50.798;4.358;2022-12-15T15:38:31;35.33;;;15.80;;
7575;SDS011;3829;50.798;4.358;2022-12-15T15:41:19;32.83;;;17.70;;
7575;SDS011;3829;50.798;4.358;2022-12-15T15:43:47;31.73;;;17.20;;
7575;SDS011;3829;50.798;4.358;2022-12-15T15:46:13;32.67;;;16.57;;
7575;SDS011;3829;50.798;4.358;2022-12-15T15:48:46;34.40;;;18.00;;
7575;SDS011;3829;50.798;4.358;2022-12-15T15:51:15;32.07;;;17.70;;
7575;SDS011;3829;50.798;4.358;2022-12-15T15:53:41;34.47;;;17.60;;
7575;SDS011;3829;50.798;4.358;2022-12-15T15:56:10;33.10;;;18.33;;
7575;SDS011;3829;50.798;4.358;2022-12-15T15:58:38;38.47;;;18.73;;
7575;SDS011;3829;50.798;4.358;2022-12-15T16:01:04;28.33;;;17.13;;
7575;SDS011;3829;50.798;4.358;2022-12-15T16:03:30;33.80;;;17.40;;
7575;SDS011;3829;50.798;4.358;2022-12-15T16:05:56;37.77;;;18.47;;
7575;SDS011;3829;50.798;4.358;2022-12-15T16:08:23;35.73;;;17.23;;
7575;SDS011;3829;50.798;4.358;2022-12-15T16:10:52;36.10;;;16.67;;
7575;SDS011;3829;50.798;4.358;2022-12-15T16:13:19;50.53;;;22.50;;
7575;SDS011;3829;50.798;4.358;2022-12-15T16:15:46;40.13;;;21.03;;
7575;SDS011;3829;50.798;4.358;2022-12-15T16:18:13;36.73;;;20.10;;
7575;SDS011;3829;50.798;4.358;2022-12-15T16:20:39;40.63;;;19.43;;
7575;SDS011;3829;50.798;4.358;2022-12-15T16:23:18;38.00;;;17.37;;
7575;SDS011;3829;50.798;4.358;2022-12-15T16:25:53;39.33;;;17.50;;
7575;SDS011;3829;50.798;4.358;2022-12-15T16:28:27;33.53;;;17.53;;
7575;SDS011;3829;50.798;4.358;2022-12-15T16:30:54;36.63;;;17.57;;
7575;SDS011;3829;50.798;4.358;2022-12-15T16:33:22;47.43;;;18.47;;
7575;SDS011;3829;50.798;4.358;2022-12-15T16:35:48;41.27;;;18.67;;
7575;SDS011;3829;50.798;4.358;2022-12-15T16:38:25;38.07;;;21.53;;
7575;SDS011;3829;50.798;4.358;2022-12-15T16:40:55;48.57;;;24.17;;
7575;SDS011;3829;50.798;4.358;2022-12-15T16:43:28;58.00;;;28.93;;
7575;SDS011;3829;50.798;4.358;2022-12-15T16:45:53;47.83;;;23.10;;
7575;SDS011;3829;50.798;4.358;2022-12-15T16:48:19;44.63;;;23.43;;
7575;SDS011;3829;50.798;4.358;2022-12-15T16:50:49;58.13;;;25.30;;
7575;SDS011;3829;50.798;4.358;2022-12-15T16:53:27;56.53;;;25.37;;
7575;SDS011;3829;50.798;4.358;2022-12-15T16:55:56;57.70;;;27.40;;
7575;SDS011;3829;50.798;4.358;2022-12-15T16:58:23;52.50;;;27.57;;
7575;SDS011;3829;50.798;4.358;2022-12-15T17:00:50;53.97;;;27.53;;
7575;SDS011;3829;50.798;4.358;2022-12-15T17:03:18;60.93;;;29.47;;
7575;SDS011;3829;50.798;4.358;2022-12-15T17:05:47;50.43;;;27.43;;
7575;SDS011;3829;50.798;4.358;2022-12-15T17:08:15;58.40;;;29.30;;
7575;SDS011;3829;50.798;4.358;2022-12-15T17:10:45;52.27;;;29.07;;
7575;SDS011;3829;50.798;4.358;2022-12-15T17:13:15;56.03;;;28.57;;
7575;SDS011;3829;50.798;4.358;2022-12-15T17:15:43;49.83;;;27.70;;
7575;SDS011;3829;50.798;4.358;2022-12-15T17:18:10;49.27;;;27.70;;
7575;SDS011;3829;50.798;4.358;2022-12-15T17:20:37;48.90;;;27.17;;
7575;SDS011;3829;50.798;4.358;2022-12-15T17:23:05;57.67;;;29.07;;
7575;SDS011;3829;50.798;4.358;2022-12-15T17:25:36;67.33;;;32.17;;
7575;SDS011;3829;50.798;4.358;2022-12-15T17:28:03;59.53;;;32.30;;
7575;SDS011;3829;50.798;4.358;2022-12-15T17:30:35;68.50;;;32.50;;
7575;SDS011;3829;50.798;4.358;2022-12-15T17:33:01;58.30;;;30.77;;
7575;SDS011;3829;50.798;4.358;2022-12-15T17:35:26;58.27;;;29.57;;
7575;SDS011;3829;50.798;4.358;2022-12-15T17:37:53;53.67;;;29.07;;
7575;SDS011;3829;50.798;4.358;2022-12-15T17:40:20;51.30;;;27.80;;
7575;SDS011;3829;50.798;4.358;2022-12-15T17:42:48;54.40;;;25.97;;
7575;SDS011;3829;50.798;4.358;2022-12-15T17:45:15;51.23;;;25.97;;
7575;SDS011;3829;50.798;4.358;2022-12-15T17:47:48;42.87;;;25.03;;
7575;SDS011;3829;50.798;4.358;2022-12-15T17:50:15;44.43;;;23.67;;
7575;SDS011;3829;50.798;4.358;2022-12-15T17:52:42;47.27;;;25.53;;
7575;SDS011;3829;50.798;4.358;2022-12-15T17:55:18;47.10;;;25.57;;
7575;SDS011;3829;50.798;4.358;2022-12-15T17:57:46;47.67;;;25.67;;
7575;SDS011;3829;50.798;4.358;2022-12-15T18:00:16;56.03;;;26.60;;